createdAt,value
2022-09-20T00:00:07.999Z,22.17
2022-09-20T00:01:12.258Z,22.17
2022-09-20T00:02:16.714Z,22.17
2022-09-20T00:03:20.927Z,22.16
2022-09-20T00:04:25.146Z,22.17
2022-09-20T00:05:29.383Z,22.17
2022-09-20T00:06:33.693Z,22.16
2022-09-20T00:07:38.061Z,22.17
2022-09-20T00:08:42.289Z,22.16
2022-09-20T00:09:46.523Z,22.15
2022-09-20T00:10:50.769Z,22.16
2022-09-20T00:11:55.098Z,22.16
2022-09-20T00:12:59.320Z,22.17
2022-09-20T00:14:03.581Z,22.16
2022-09-20T00:15:10.291Z,22.16
2022-09-20T00:16:14.562Z,22.15
2022-09-20T00:17:19.131Z,22.15
2022-09-20T00:18:23.646Z,22.16
2022-09-20T00:19:27.892Z,22.16
2022-09-20T00:20:32.107Z,22.14
2022-09-20T00:21:36.354Z,22.16
2022-09-20T00:22:40.611Z,22.16
2022-09-20T00:23:44.832Z,22.14
2022-09-20T00:24:49.270Z,22.15
2022-09-20T00:25:53.516Z,22.16
2022-09-20T00:26:57.784Z,22.17
2022-09-20T00:28:02.013Z,22.15
2022-09-20T00:29:06.251Z,22.16
2022-09-20T00:30:10.486Z,22.16
2022-09-20T00:31:15.004Z,22.15
2022-09-20T00:32:19.549Z,22.17
2022-09-20T00:33:23.762Z,22.17
2022-09-20T00:34:28.019Z,22.13
2022-09-20T00:35:32.216Z,22.12
2022-09-20T00:36:36.427Z,22.11
2022-09-20T00:37:40.663Z,22.11
2022-09-20T00:38:44.917Z,22.1
2022-09-20T00:39:49.223Z,22.11
2022-09-20T00:40:53.494Z,22.1
2022-09-20T00:41:57.744Z,22.1
2022-09-20T00:43:01.978Z,22.1
2022-09-20T00:44:06.215Z,22.1
2022-09-20T00:45:10.478Z,22.11
2022-09-20T00:46:14.770Z,22.12
2022-09-20T00:47:19.186Z,22.11
2022-09-20T00:48:23.460Z,22.11
2022-09-20T00:49:27.680Z,22.11
2022-09-20T00:50:31.912Z,22.11
2022-09-20T00:51:36.211Z,22.11
2022-09-20T00:52:40.604Z,22.14
2022-09-20T00:53:44.830Z,22.13
2022-09-20T00:54:49.080Z,22.13
2022-09-20T00:55:53.351Z,22.11
2022-09-20T00:56:57.598Z,22.11
2022-09-20T00:58:01.819Z,22.09
2022-09-20T00:59:06.068Z,22.12
2022-09-20T01:00:10.299Z,22.12
2022-09-20T01:01:14.595Z,22.11
2022-09-20T01:02:19.297Z,22.1
2022-09-20T01:03:23.827Z,22.1
2022-09-20T01:04:28.063Z,22.1
2022-09-20T01:05:32.304Z,22.13
2022-09-20T01:06:36.584Z,22.15
2022-09-20T01:07:40.783Z,22.13
2022-09-20T01:08:45.043Z,22.11
2022-09-20T01:09:49.270Z,22.11
2022-09-20T01:10:53.511Z,22.11
2022-09-20T01:11:57.725Z,22.11
2022-09-20T01:13:01.938Z,22.11
2022-09-20T01:14:06.172Z,22.1
2022-09-20T01:15:10.413Z,22.1
2022-09-20T01:16:14.745Z,22.09
2022-09-20T01:17:19.097Z,22.11
2022-09-20T01:18:23.348Z,22.1
2022-09-20T01:19:27.687Z,22.09
2022-09-20T01:20:31.914Z,22.09
2022-09-20T01:21:36.139Z,22.08
2022-09-20T01:22:40.371Z,22.12
2022-09-20T01:23:44.625Z,22.11
2022-09-20T01:24:48.857Z,22.09
2022-09-20T01:25:53.073Z,22.09
2022-09-20T01:26:57.277Z,22.09
2022-09-20T01:28:01.539Z,22.09
2022-09-20T01:29:05.769Z,22.09
2022-09-20T01:30:10.014Z,22.09
2022-09-20T01:31:14.271Z,22.08
2022-09-20T01:32:18.709Z,22.08
2022-09-20T01:33:22.934Z,22.08
2022-09-20T01:34:27.192Z,22.08
2022-09-20T01:35:34.465Z,22.08
2022-09-20T01:36:38.671Z,22.06
2022-09-20T01:37:42.926Z,22.06
2022-09-20T01:38:47.158Z,22.06
2022-09-20T01:39:51.374Z,22.07
2022-09-20T01:40:55.628Z,22.05
2022-09-20T01:41:59.839Z,22.07
2022-09-20T01:43:04.057Z,22.05
2022-09-20T01:44:08.318Z,22.07
2022-09-20T01:45:13.579Z,22.08
2022-09-20T01:46:17.867Z,22.06
2022-09-20T01:47:22.373Z,22.07
2022-09-20T01:48:26.605Z,22.07
2022-09-20T01:49:30.837Z,22.06
2022-09-20T01:50:35.047Z,22.06
2022-09-20T01:51:39.280Z,22.05
2022-09-20T01:52:43.485Z,22.05
2022-09-20T01:53:47.734Z,22.05
2022-09-20T01:54:52.041Z,22.04
2022-09-20T01:55:56.260Z,22.04
2022-09-20T01:57:00.479Z,22.03
2022-09-20T01:58:04.717Z,22.03
2022-09-20T01:59:24.969Z,22.05
2022-09-20T02:00:30.371Z,22.06
2022-09-20T02:01:34.730Z,22.08
2022-09-20T02:02:39.469Z,22.05
2022-09-20T02:03:43.877Z,22.05
2022-09-20T02:04:48.121Z,22.04
2022-09-20T02:05:52.630Z,22.05
2022-09-20T02:06:56.863Z,22.04
2022-09-20T02:08:01.103Z,22.06
2022-09-20T02:09:06.371Z,22.04
2022-09-20T02:10:10.577Z,22.05
2022-09-20T02:11:14.835Z,22.05
2022-09-20T02:12:19.065Z,22.03
2022-09-20T02:13:23.294Z,22.06
2022-09-20T02:14:27.566Z,22.03
2022-09-20T02:15:31.766Z,22.02
2022-09-20T02:16:36.031Z,22.01
2022-09-20T02:17:40.507Z,22.03
2022-09-20T02:18:45.771Z,22.01
2022-09-20T02:19:50.044Z,22
2022-09-20T02:20:54.288Z,22.01
2022-09-20T02:21:58.512Z,22.02
2022-09-20T02:23:02.797Z,22.03
2022-09-20T02:24:07.165Z,22.04
2022-09-20T02:25:11.524Z,22.06
2022-09-20T02:26:15.765Z,22.04
2022-09-20T02:27:20.023Z,22.04
2022-09-20T02:28:24.286Z,22.04
2022-09-20T02:29:28.499Z,22.04
2022-09-20T02:30:32.733Z,22.04
2022-09-20T02:31:37.054Z,22.04
2022-09-20T02:32:41.507Z,22.03
2022-09-20T02:33:45.708Z,22.01
2022-09-20T02:34:49.925Z,22.01
2022-09-20T02:35:54.166Z,22.03
2022-09-20T02:36:58.400Z,22.03
2022-09-20T02:38:02.629Z,22.06
2022-09-20T02:39:06.857Z,22.06
2022-09-20T02:40:11.129Z,22.05
2022-09-20T02:41:15.574Z,22.03
2022-09-20T02:42:19.842Z,22.01
2022-09-20T02:43:24.094Z,22.03
2022-09-20T02:44:28.322Z,22.01
2022-09-20T02:45:32.668Z,22
2022-09-20T02:46:37.093Z,22
2022-09-20T02:47:41.316Z,22
2022-09-20T02:48:45.567Z,22.01
2022-09-20T02:49:49.866Z,22.01
2022-09-20T02:50:54.146Z,22.01
2022-09-20T02:51:58.392Z,22
2022-09-20T02:53:02.683Z,22
2022-09-20T02:54:06.940Z,22
2022-09-20T02:55:11.166Z,22
2022-09-20T02:56:15.408Z,21.98
2022-09-20T02:57:19.657Z,21.98
2022-09-20T02:58:23.882Z,21.98
2022-09-20T02:59:28.091Z,21.98
2022-09-20T03:00:32.331Z,21.98
2022-09-20T03:01:36.605Z,21.99
2022-09-20T03:02:41.139Z,21.98
2022-09-20T03:03:45.675Z,21.98
2022-09-20T03:04:49.871Z,21.98
2022-09-20T03:05:54.152Z,21.97
2022-09-20T03:06:58.471Z,21.96
2022-09-20T03:08:03.218Z,21.96
2022-09-20T03:09:07.545Z,21.96
2022-09-20T03:10:11.883Z,21.96
2022-09-20T03:11:16.117Z,21.96
2022-09-20T03:12:20.373Z,21.96
2022-09-20T03:13:24.645Z,21.96
2022-09-20T03:14:28.867Z,21.96
2022-09-20T03:15:33.099Z,21.96
2022-09-20T03:16:37.397Z,21.94
2022-09-20T03:17:42.274Z,21.96
2022-09-20T03:18:46.545Z,21.94
2022-09-20T03:19:50.792Z,21.94
2022-09-20T03:20:55.015Z,21.94
2022-09-20T03:21:59.260Z,21.96
2022-09-20T03:23:03.500Z,21.95
2022-09-20T03:24:07.709Z,21.96
2022-09-20T03:25:11.964Z,21.95
2022-09-20T03:26:16.209Z,21.96
2022-09-20T03:27:20.443Z,21.95
2022-09-20T03:28:24.700Z,21.95
2022-09-20T03:29:28.954Z,21.96
2022-09-20T03:30:33.204Z,21.96
2022-09-20T03:31:37.473Z,21.96
2022-09-20T03:32:41.974Z,21.97
2022-09-20T03:33:46.262Z,21.98
2022-09-20T03:34:53.507Z,21.96
2022-09-20T03:35:57.718Z,21.96
2022-09-20T03:37:01.945Z,21.96
2022-09-20T03:38:06.174Z,21.96
2022-09-20T03:39:10.446Z,21.96
2022-09-20T03:40:14.711Z,21.96
2022-09-20T03:41:19.260Z,21.97
2022-09-20T03:42:23.459Z,21.97
2022-09-20T03:43:27.682Z,21.97
2022-09-20T03:44:31.909Z,21.99
2022-09-20T03:45:36.167Z,21.99
2022-09-20T03:46:40.626Z,22
2022-09-20T03:47:44.899Z,21.99
2022-09-20T03:48:49.083Z,22
2022-09-20T03:49:53.287Z,22
2022-09-20T03:50:57.502Z,22
2022-09-20T03:52:01.708Z,22
2022-09-20T03:53:05.961Z,22.01
2022-09-20T03:54:12.449Z,22.01
2022-09-20T03:55:16.682Z,22.02
2022-09-20T03:56:20.896Z,22.02
2022-09-20T03:57:25.136Z,22.02
2022-09-20T03:58:29.389Z,22.01
2022-09-20T03:59:33.656Z,22.01
2022-09-20T04:00:40.522Z,22.02
2022-09-20T04:01:45.062Z,22.02
2022-09-20T04:02:49.266Z,22.03
2022-09-20T04:03:53.463Z,22.03
2022-09-20T04:04:57.701Z,22.03
2022-09-20T04:06:01.925Z,22.02
2022-09-20T04:07:06.172Z,22.01
2022-09-20T04:08:10.501Z,22.09
2022-09-20T04:09:14.716Z,22.19
2022-09-20T04:10:18.950Z,22.23
2022-09-20T04:11:23.188Z,22.18
2022-09-20T04:12:27.475Z,22.12
2022-09-20T04:13:32.996Z,22.09
2022-09-20T04:14:37.235Z,22.02
2022-09-20T04:15:41.507Z,22
2022-09-20T04:16:45.901Z,21.97
2022-09-20T04:17:50.336Z,21.94
2022-09-20T04:18:54.569Z,21.92
2022-09-20T04:19:58.806Z,21.92
2022-09-20T04:21:03.034Z,21.89
2022-09-20T04:22:07.345Z,21.87
2022-09-20T04:23:11.555Z,21.85
2022-09-20T04:24:15.768Z,21.82
2022-09-20T04:25:19.998Z,21.81
2022-09-20T04:26:24.241Z,21.81
2022-09-20T04:27:28.488Z,21.8
2022-09-20T04:28:32.726Z,21.81
2022-09-20T04:29:36.980Z,21.8
2022-09-20T04:30:41.254Z,21.77
2022-09-20T04:31:45.597Z,21.76
2022-09-20T04:32:56.592Z,21.74
2022-09-20T04:34:00.829Z,21.73
2022-09-20T04:35:05.083Z,21.7
2022-09-20T04:36:09.331Z,21.71
2022-09-20T04:37:13.840Z,21.71
2022-09-20T04:38:18.067Z,21.7
2022-09-20T04:39:22.292Z,21.69
2022-09-20T04:40:26.573Z,21.69
2022-09-20T04:41:32.514Z,21.69
2022-09-20T04:42:36.830Z,21.67
2022-09-20T04:43:41.061Z,21.66
2022-09-20T04:44:45.287Z,21.65
2022-09-20T04:45:49.612Z,21.66
2022-09-20T04:46:56.151Z,21.67
2022-09-20T04:48:00.565Z,21.65
2022-09-20T04:49:04.793Z,21.68
2022-09-20T04:50:09.013Z,21.7
2022-09-20T04:51:13.304Z,21.68
2022-09-20T04:52:17.509Z,21.66
2022-09-20T04:53:21.784Z,21.66
2022-09-20T04:54:26.011Z,21.64
2022-09-20T04:55:30.225Z,21.65
2022-09-20T04:56:34.523Z,21.63
2022-09-20T04:57:38.775Z,21.62
2022-09-20T04:58:43.083Z,21.63
2022-09-20T04:59:47.283Z,21.59
2022-09-20T05:00:51.534Z,21.6
2022-09-20T05:01:56.031Z,21.6
2022-09-20T05:03:00.476Z,21.62
2022-09-20T05:04:04.692Z,21.6
2022-09-20T05:05:08.944Z,21.59
2022-09-20T05:06:13.151Z,21.58
2022-09-20T05:07:17.437Z,21.59
2022-09-20T05:08:21.704Z,21.59
2022-09-20T05:09:25.980Z,21.58
2022-09-20T05:10:30.208Z,21.56
2022-09-20T05:11:34.432Z,21.61
2022-09-20T05:12:38.660Z,21.59
2022-09-20T05:13:42.935Z,21.57
2022-09-20T05:14:47.161Z,21.56
2022-09-20T05:15:51.386Z,21.56
2022-09-20T05:16:55.658Z,21.57
2022-09-20T05:18:00.177Z,21.55
2022-09-20T05:19:04.401Z,21.55
2022-09-20T05:20:08.651Z,21.53
2022-09-20T05:21:12.880Z,21.56
2022-09-20T05:22:17.097Z,21.5
2022-09-20T05:23:21.343Z,21.55
2022-09-20T05:24:25.564Z,21.6
2022-09-20T05:25:32.299Z,21.6
2022-09-20T05:26:36.530Z,21.61
2022-09-20T05:27:40.720Z,21.61
2022-09-20T05:28:44.934Z,21.59
2022-09-20T05:29:49.180Z,21.57
2022-09-20T05:30:53.677Z,21.58
2022-09-20T05:31:57.986Z,21.56
2022-09-20T05:33:02.624Z,21.56
2022-09-20T05:34:06.862Z,21.57
2022-09-20T05:35:11.068Z,21.55
2022-09-20T05:36:15.304Z,21.55
2022-09-20T05:37:19.566Z,21.55
2022-09-20T05:38:23.852Z,21.54
2022-09-20T05:39:28.298Z,21.55
2022-09-20T05:40:32.643Z,21.54
2022-09-20T05:41:37.093Z,21.55
2022-09-20T05:42:41.304Z,21.54
2022-09-20T05:43:45.543Z,21.54
2022-09-20T05:44:49.822Z,21.53
2022-09-20T05:45:54.096Z,21.55
2022-09-20T05:46:58.455Z,21.54
2022-09-20T05:48:02.664Z,21.54
2022-09-20T05:49:07.051Z,21.53
2022-09-20T05:50:11.286Z,21.53
2022-09-20T05:51:15.543Z,21.55
2022-09-20T05:52:19.750Z,21.53
2022-09-20T05:53:23.951Z,21.52
2022-09-20T05:54:28.157Z,21.51
2022-09-20T05:55:32.453Z,21.5
2022-09-20T05:56:36.728Z,21.51
2022-09-20T05:57:41.064Z,21.52
2022-09-20T05:58:45.289Z,21.51
2022-09-20T05:59:49.518Z,21.51
2022-09-20T06:00:53.811Z,21.5
2022-09-20T06:01:58.235Z,21.5
2022-09-20T06:03:02.617Z,21.49
2022-09-20T06:04:07.128Z,21.49
2022-09-20T06:05:11.395Z,21.5
2022-09-20T06:06:15.653Z,21.49
2022-09-20T06:07:19.889Z,21.51
2022-09-20T06:08:24.163Z,21.5
2022-09-20T06:09:28.402Z,21.5
2022-09-20T06:10:32.617Z,21.5
2022-09-20T06:11:36.889Z,21.49
2022-09-20T06:12:41.117Z,21.49
2022-09-20T06:13:45.426Z,21.49
2022-09-20T06:14:49.717Z,21.51
2022-09-20T06:15:53.958Z,21.53
2022-09-20T06:16:58.173Z,21.5
2022-09-20T06:18:02.407Z,21.48
2022-09-20T06:19:06.621Z,21.48
2022-09-20T06:20:10.897Z,21.48
2022-09-20T06:21:15.153Z,21.5
2022-09-20T06:22:19.396Z,21.48
2022-09-20T06:23:23.610Z,21.48
2022-09-20T06:24:27.845Z,21.49
2022-09-20T06:25:32.076Z,21.48
2022-09-20T06:26:36.298Z,21.47
2022-09-20T06:27:40.507Z,21.46
2022-09-20T06:28:44.778Z,21.46
2022-09-20T06:29:50.014Z,21.46
2022-09-20T06:30:54.300Z,21.47
2022-09-20T06:31:58.718Z,21.45
2022-09-20T06:33:02.956Z,21.45
2022-09-20T06:34:07.208Z,21.45
2022-09-20T06:35:11.439Z,21.43
2022-09-20T06:36:15.684Z,21.44
2022-09-20T06:37:19.916Z,21.44
2022-09-20T06:38:24.161Z,21.44
2022-09-20T06:39:28.391Z,21.45
2022-09-20T06:40:32.663Z,21.45
2022-09-20T06:41:37.073Z,21.44
2022-09-20T06:42:41.300Z,21.44
2022-09-20T06:43:45.535Z,21.44
2022-09-20T06:44:49.747Z,21.44
2022-09-20T06:45:55.029Z,21.43
2022-09-20T06:46:59.456Z,21.44
2022-09-20T06:48:03.682Z,21.47
2022-09-20T06:49:08.121Z,21.47
2022-09-20T06:50:12.428Z,21.47
2022-09-20T06:51:19.009Z,21.45
2022-09-20T06:52:23.224Z,21.47
2022-09-20T06:53:27.448Z,21.47
2022-09-20T06:54:31.653Z,21.46
2022-09-20T06:55:35.890Z,21.46
2022-09-20T06:56:40.090Z,21.44
2022-09-20T06:57:44.363Z,21.44
2022-09-20T06:58:48.605Z,21.43
2022-09-20T06:59:52.842Z,21.45
2022-09-20T07:00:57.177Z,21.44
2022-09-20T07:02:01.577Z,21.43
2022-09-20T07:03:06.007Z,21.42
2022-09-20T07:04:10.216Z,21.42
2022-09-20T07:05:14.551Z,21.43
2022-09-20T07:06:18.827Z,21.44
2022-09-20T07:07:23.075Z,21.44
2022-09-20T07:08:27.366Z,21.43
2022-09-20T07:09:31.606Z,21.42
2022-09-20T07:10:35.831Z,21.43
2022-09-20T07:11:40.054Z,21.44
2022-09-20T07:12:44.308Z,21.43
2022-09-20T07:13:48.536Z,21.42
2022-09-20T07:14:52.796Z,21.42
2022-09-20T07:15:57.016Z,21.41
2022-09-20T07:17:03.767Z,21.41
2022-09-20T07:18:08.035Z,21.4
2022-09-20T07:19:12.298Z,21.4
2022-09-20T07:20:21.178Z,21.4
2022-09-20T07:21:25.621Z,21.41
2022-09-20T07:22:29.848Z,21.4
2022-09-20T07:23:34.108Z,21.39
2022-09-20T07:24:38.343Z,21.38
2022-09-20T07:25:42.554Z,21.38
2022-09-20T07:26:46.820Z,21.4
2022-09-20T07:27:51.037Z,21.4
2022-09-20T07:28:55.250Z,21.4
2022-09-20T07:29:59.471Z,21.42
2022-09-20T07:31:03.685Z,21.42
2022-09-20T07:32:08.007Z,21.42
2022-09-20T07:33:12.225Z,21.42
2022-09-20T07:34:16.468Z,21.42
2022-09-20T07:35:20.883Z,21.41
2022-09-20T07:36:25.118Z,21.41
2022-09-20T07:37:31.118Z,21.39
2022-09-20T07:38:40.389Z,21.39
2022-09-20T07:39:44.616Z,21.4
2022-09-20T07:40:48.816Z,21.41
2022-09-20T07:41:53.079Z,21.42
2022-09-20T07:42:57.368Z,21.41
2022-09-20T07:44:01.618Z,21.41
2022-09-20T07:45:05.920Z,21.43
2022-09-20T07:46:10.199Z,21.43
2022-09-20T07:47:14.565Z,21.41
2022-09-20T07:48:18.803Z,21.41
2022-09-20T07:49:23.098Z,21.4
2022-09-20T07:50:27.366Z,21.39
2022-09-20T07:51:31.620Z,21.41
2022-09-20T07:52:35.914Z,21.41
2022-09-20T07:53:40.133Z,21.41
2022-09-20T07:54:44.374Z,21.41
2022-09-20T07:55:48.591Z,21.4
2022-09-20T07:56:52.843Z,21.4
2022-09-20T07:57:57.107Z,21.4
2022-09-20T07:59:01.328Z,21.38
2022-09-20T08:00:05.570Z,21.38
2022-09-20T08:01:09.927Z,21.39
2022-09-20T08:02:14.518Z,21.39
2022-09-20T08:03:19.024Z,21.4
2022-09-20T08:04:23.334Z,21.42
2022-09-20T08:05:27.543Z,21.42
2022-09-20T08:06:31.834Z,21.42
2022-09-20T08:07:36.075Z,21.42
2022-09-20T08:08:40.325Z,21.42
2022-09-20T08:09:44.579Z,21.4
2022-09-20T08:10:48.855Z,21.41
2022-09-20T08:11:53.201Z,21.41
2022-09-20T08:15:11.966Z,21.4
2022-09-20T08:16:16.937Z,21.39
2022-09-20T08:17:21.425Z,21.4
2022-09-20T08:18:25.670Z,21.42
2022-09-20T08:19:29.994Z,21.4
2022-09-20T08:20:34.231Z,21.4
2022-09-20T08:21:38.527Z,21.39
2022-09-20T08:22:42.773Z,21.39
2022-09-20T08:23:55.112Z,21.38
2022-09-20T08:24:59.491Z,21.39
2022-09-20T08:26:03.686Z,21.4
2022-09-20T08:27:10.121Z,21.4
2022-09-20T08:28:14.367Z,21.4
2022-09-20T08:29:20.858Z,21.4
2022-09-20T08:30:27.587Z,21.41
2022-09-20T08:31:32.182Z,21.4
2022-09-20T08:32:36.771Z,21.42
2022-09-20T08:33:41.035Z,21.41
2022-09-20T08:34:49.164Z,21.42
2022-09-20T08:35:57.562Z,21.42
2022-09-20T08:37:02.095Z,21.42
2022-09-20T08:40:40.883Z,21.41
2022-09-20T08:41:45.306Z,21.42
2022-09-20T08:42:49.533Z,21.42
2022-09-20T08:43:53.821Z,21.42
2022-09-20T08:44:58.856Z,21.43
2022-09-20T08:46:06.978Z,21.46
2022-09-20T08:47:11.498Z,21.46
2022-09-20T08:48:15.718Z,21.45
2022-09-20T08:49:20.097Z,21.43
2022-09-20T08:50:24.319Z,21.44
2022-09-20T08:51:28.616Z,21.45
2022-09-20T08:52:36.604Z,21.44
2022-09-20T08:53:41.018Z,21.46
2022-09-20T08:54:51.038Z,21.46
2022-09-20T08:55:55.275Z,21.47
2022-09-20T08:57:00.535Z,21.45
2022-09-20T08:58:09.070Z,21.46
2022-09-20T08:59:13.386Z,21.48
2022-09-20T09:00:17.676Z,21.46
2022-09-20T09:01:22.033Z,21.47
2022-09-20T09:02:26.458Z,21.45
2022-09-20T09:03:30.752Z,21.45
2022-09-20T09:04:34.987Z,21.45
2022-09-20T09:05:39.210Z,21.44
2022-09-20T09:06:43.447Z,21.46
2022-09-20T09:07:47.721Z,21.47
2022-09-20T09:08:51.965Z,21.48
2022-09-20T09:09:56.215Z,21.48
2022-09-20T09:11:00.461Z,21.51
2022-09-20T09:12:04.670Z,21.52
2022-09-20T09:13:08.890Z,21.5
2022-09-20T09:14:13.098Z,21.49
2022-09-20T09:15:17.821Z,21.48
2022-09-20T09:16:23.926Z,21.49
2022-09-20T09:17:38.841Z,21.48
2022-09-20T09:18:43.072Z,21.47
2022-09-20T09:19:47.278Z,21.47
2022-09-20T09:20:51.495Z,21.48
2022-09-20T09:21:55.729Z,21.48
2022-09-20T09:22:59.957Z,21.49
2022-09-20T09:24:04.213Z,21.49
2022-09-20T09:25:08.461Z,21.5
2022-09-20T09:26:12.704Z,21.49
2022-09-20T09:27:16.935Z,21.48
2022-09-20T09:28:21.169Z,21.5
2022-09-20T09:29:25.414Z,21.5
2022-09-20T09:30:33.970Z,21.49
2022-09-20T09:31:38.254Z,21.51
2022-09-20T09:32:42.885Z,21.52
2022-09-20T09:33:47.126Z,21.52
2022-09-20T09:34:51.387Z,21.5
2022-09-20T09:35:55.609Z,21.48
2022-09-20T09:36:59.829Z,21.5
2022-09-20T09:38:04.071Z,21.48
2022-09-20T09:39:08.295Z,21.49
2022-09-20T09:40:12.605Z,21.49
2022-09-20T09:41:16.977Z,21.49
2022-09-20T09:42:21.215Z,21.49
2022-09-20T09:43:25.478Z,21.46
2022-09-20T09:44:29.733Z,21.46
2022-09-20T09:45:33.986Z,21.49
2022-09-20T09:46:38.466Z,21.5
2022-09-20T09:47:42.698Z,21.49
2022-09-20T09:48:46.937Z,21.49
2022-09-20T09:49:51.181Z,21.51
2022-09-20T09:51:03.177Z,21.5
2022-09-20T09:52:07.423Z,21.51
2022-09-20T09:53:11.643Z,21.5
2022-09-20T09:54:15.882Z,21.5
2022-09-20T09:55:20.094Z,21.5
2022-09-20T09:56:24.395Z,21.5
2022-09-20T09:57:28.635Z,21.5
2022-09-20T09:58:32.890Z,21.5
2022-09-20T09:59:37.128Z,21.48
2022-09-20T10:00:41.361Z,21.48
2022-09-20T10:01:45.625Z,21.47
2022-09-20T10:02:50.120Z,21.48
2022-09-20T10:03:54.354Z,21.47
2022-09-20T10:04:58.599Z,21.47
2022-09-20T10:06:02.930Z,21.46
2022-09-20T10:07:07.130Z,21.46
2022-09-20T10:08:11.370Z,21.47
2022-09-20T10:09:15.591Z,21.48
2022-09-20T10:10:19.818Z,21.5
2022-09-20T10:11:24.066Z,21.52
2022-09-20T10:12:28.297Z,21.53
2022-09-20T10:13:34.229Z,21.53
2022-09-20T10:14:43.967Z,21.53
2022-09-20T10:15:48.226Z,21.53
2022-09-20T10:16:52.509Z,21.53
2022-09-20T10:17:56.967Z,21.54
2022-09-20T10:19:01.243Z,21.54
2022-09-20T10:20:05.467Z,21.53
2022-09-20T10:21:09.738Z,21.54
2022-09-20T10:22:13.968Z,21.55
2022-09-20T10:25:07.414Z,21.53
2022-09-20T10:26:11.637Z,21.56
2022-09-20T10:27:15.910Z,21.57
2022-09-20T10:28:20.131Z,21.58
2022-09-20T10:29:24.340Z,21.59
2022-09-20T10:30:28.661Z,21.57
2022-09-20T10:31:33.217Z,21.58
2022-09-20T10:32:37.696Z,21.6
2022-09-20T10:33:43.004Z,21.61
2022-09-20T10:34:47.346Z,21.6
2022-09-20T10:35:51.739Z,21.62
2022-09-20T10:36:55.960Z,21.63
2022-09-20T10:38:00.192Z,21.64
2022-09-20T10:39:04.451Z,21.63
2022-09-20T10:40:08.717Z,21.63
2022-09-20T10:41:13.232Z,21.63
2022-09-20T10:42:17.463Z,21.64
2022-09-20T10:43:24.409Z,21.63
2022-09-20T10:44:28.629Z,21.63
2022-09-20T10:47:35.706Z,21.64
2022-09-20T10:48:39.938Z,21.65
2022-09-20T10:49:47.283Z,21.66
2022-09-20T10:50:54.412Z,21.66
2022-09-20T10:51:58.708Z,21.64
2022-09-20T10:53:02.971Z,21.65
2022-09-20T10:54:07.222Z,21.66
2022-09-20T10:55:11.445Z,21.67
2022-09-20T10:56:15.773Z,21.64
2022-09-20T10:57:20.028Z,21.64
2022-09-20T10:58:24.241Z,21.66
2022-09-20T10:59:28.518Z,21.66
2022-09-20T11:00:32.761Z,21.65
2022-09-20T11:01:37.053Z,21.66
2022-09-20T11:02:41.527Z,21.67
2022-09-20T11:03:45.832Z,21.67
2022-09-20T11:04:50.123Z,21.67
2022-09-20T11:05:54.372Z,21.66
2022-09-20T11:07:01.744Z,21.67
2022-09-20T11:08:05.953Z,21.66
2022-09-20T11:09:13.811Z,21.67
2022-09-20T11:10:18.242Z,21.66
2022-09-20T11:11:22.468Z,21.66
2022-09-20T11:12:26.803Z,21.67
2022-09-20T11:13:31.012Z,21.66
2022-09-20T11:14:35.273Z,21.67
2022-09-20T11:15:39.539Z,21.66
2022-09-20T11:16:43.872Z,21.66
2022-09-20T11:17:48.345Z,21.66
2022-09-20T11:18:52.773Z,21.65
2022-09-20T11:19:57.142Z,21.66
2022-09-20T11:21:04.496Z,21.66
2022-09-20T11:22:08.709Z,21.66
2022-09-20T11:23:12.965Z,21.67
2022-09-20T11:24:17.174Z,21.67
2022-09-20T11:25:24.049Z,21.66
2022-09-20T11:26:32.993Z,21.67
2022-09-20T11:27:37.223Z,21.69
2022-09-20T11:28:41.469Z,21.68
2022-09-20T11:29:45.737Z,21.69
2022-09-20T11:30:50.004Z,21.7
2022-09-20T11:31:54.242Z,21.72
2022-09-20T11:32:58.662Z,21.72
2022-09-20T11:34:02.890Z,21.72
2022-09-20T11:35:07.152Z,21.72
2022-09-20T11:36:11.394Z,21.73
2022-09-20T11:37:15.617Z,21.74
2022-09-20T11:38:19.870Z,21.73
2022-09-20T11:39:24.119Z,21.72
2022-09-20T11:40:28.451Z,21.73
2022-09-20T11:41:32.963Z,21.73
2022-09-20T11:42:37.248Z,21.71
2022-09-20T11:43:41.496Z,21.69
2022-09-20T11:44:45.740Z,21.65
2022-09-20T11:45:50.075Z,21.66
2022-09-20T11:46:54.516Z,21.66
2022-09-20T11:47:58.755Z,21.65
2022-09-20T11:49:02.978Z,21.65
2022-09-20T11:50:07.222Z,21.65
2022-09-20T11:51:12.470Z,21.64
2022-09-20T11:52:16.691Z,21.63
2022-09-20T11:53:20.943Z,21.63
2022-09-20T11:54:25.170Z,21.62
2022-09-20T11:55:29.415Z,21.63
2022-09-20T11:56:33.644Z,21.62
2022-09-20T11:57:37.872Z,21.61
2022-09-20T11:58:42.076Z,21.6
2022-09-20T11:59:46.287Z,21.62
2022-09-20T12:00:50.607Z,21.64
2022-09-20T12:01:54.924Z,21.65
2022-09-20T12:02:59.572Z,21.64
2022-09-20T12:04:28.140Z,21.64
2022-09-20T12:05:37.817Z,21.66
2022-09-20T12:06:42.097Z,21.66
2022-09-20T12:07:46.331Z,21.66
2022-09-20T12:08:50.592Z,21.65
2022-09-20T12:09:54.842Z,21.65
2022-09-20T12:10:59.125Z,21.66
2022-09-20T12:12:03.341Z,21.67
2022-09-20T12:13:07.558Z,21.68
2022-09-20T12:14:11.827Z,21.7
2022-09-20T12:15:16.124Z,21.72
2022-09-20T12:16:20.390Z,21.69
2022-09-20T12:17:24.865Z,21.68
2022-09-20T12:18:29.082Z,21.7
2022-09-20T12:19:33.317Z,21.71
2022-09-20T12:20:37.536Z,21.71
2022-09-20T12:21:41.788Z,21.72
2022-09-20T12:22:51.720Z,21.76
2022-09-20T12:23:55.956Z,21.76
2022-09-20T12:25:00.162Z,21.76
2022-09-20T12:26:04.440Z,21.78
2022-09-20T12:27:08.689Z,21.8
2022-09-20T12:28:12.933Z,21.79
2022-09-20T12:29:17.193Z,21.8
2022-09-20T12:30:21.411Z,21.79
2022-09-20T12:31:25.720Z,21.79
2022-09-20T12:32:30.036Z,21.79
2022-09-20T12:33:34.280Z,21.79
2022-09-20T12:34:38.499Z,21.82
2022-09-20T12:35:42.806Z,21.82
2022-09-20T12:36:47.045Z,21.83
2022-09-20T12:37:51.280Z,21.83
2022-09-20T12:38:55.562Z,21.84
2022-09-20T12:39:59.884Z,21.82
2022-09-20T12:41:04.275Z,21.84
2022-09-20T12:42:08.560Z,21.85
2022-09-20T12:43:12.786Z,21.87
2022-09-20T12:44:17.066Z,21.86
2022-09-20T12:45:21.301Z,21.9
2022-09-20T12:46:25.588Z,21.86
2022-09-20T12:47:29.994Z,21.84
2022-09-20T12:48:34.241Z,21.81
2022-09-20T12:49:38.491Z,21.82
2022-09-20T12:50:42.743Z,21.83
2022-09-20T12:51:46.997Z,21.8
2022-09-20T12:52:51.315Z,21.79
2022-09-20T12:53:55.537Z,21.78
2022-09-20T12:55:03.873Z,21.76
2022-09-20T12:56:14.364Z,21.74
2022-09-20T12:57:18.574Z,21.74
2022-09-20T12:58:22.885Z,21.74
2022-09-20T12:59:27.142Z,21.75
2022-09-20T13:00:31.425Z,21.72
2022-09-20T13:01:35.751Z,21.73
2022-09-20T13:02:40.121Z,21.72
2022-09-20T13:03:44.336Z,21.71
2022-09-20T13:04:48.581Z,21.7
2022-09-20T13:05:52.819Z,21.7
2022-09-20T13:06:57.079Z,21.71
2022-09-20T13:08:01.299Z,21.69
2022-09-20T13:09:05.687Z,21.69
2022-09-20T13:10:09.955Z,21.68
2022-09-20T13:11:14.173Z,21.67
2022-09-20T13:12:18.454Z,21.7
2022-09-20T13:13:22.684Z,21.7
2022-09-20T13:14:26.906Z,21.68
2022-09-20T13:15:31.168Z,21.67
2022-09-20T13:16:35.435Z,21.69
2022-09-20T13:17:40.033Z,21.7
2022-09-20T13:18:44.259Z,21.7
2022-09-20T13:19:48.471Z,21.72
2022-09-20T13:20:52.677Z,21.72
2022-09-20T13:21:56.932Z,21.73
2022-09-20T13:23:01.249Z,21.74
2022-09-20T13:24:05.975Z,21.74
2022-09-20T13:25:10.207Z,21.75
2022-09-20T13:26:14.444Z,21.77
2022-09-20T13:27:19.902Z,21.77
2022-09-20T13:28:24.146Z,21.77
2022-09-20T13:29:28.445Z,21.73
2022-09-20T13:30:32.681Z,21.72
2022-09-20T13:31:36.998Z,21.69
2022-09-20T13:32:41.406Z,21.69
2022-09-20T13:33:45.650Z,21.67
2022-09-20T13:34:49.888Z,21.66
2022-09-20T13:35:54.111Z,21.66
2022-09-20T13:36:58.338Z,21.66
2022-09-20T13:38:02.580Z,21.65
2022-09-20T13:39:06.819Z,21.66
2022-09-20T13:40:11.115Z,21.66
2022-09-20T13:41:15.519Z,21.65
2022-09-20T13:42:19.746Z,21.64
2022-09-20T13:43:24.872Z,21.66
2022-09-20T13:44:29.247Z,21.67
2022-09-20T13:45:34.120Z,21.65
2022-09-20T13:46:38.541Z,21.65
2022-09-20T13:47:42.768Z,21.65
2022-09-20T13:48:47.005Z,21.65
2022-09-20T13:49:51.239Z,21.66
2022-09-20T13:50:55.440Z,21.66
2022-09-20T13:51:59.700Z,21.64
2022-09-20T13:53:03.930Z,21.65
2022-09-20T13:54:08.162Z,21.65
2022-09-20T13:55:12.430Z,21.64
2022-09-20T13:56:16.672Z,21.65
2022-09-20T13:57:21.000Z,21.64
2022-09-20T13:58:25.279Z,21.66
2022-09-20T13:59:29.504Z,21.64
2022-09-20T14:00:33.747Z,21.66
2022-09-20T14:01:37.972Z,21.67
2022-09-20T14:02:42.687Z,21.66
2022-09-20T14:03:46.890Z,21.65